Time;durP1;ratioP1;P1;durP2;ratioP2;P2;SDS_P1;SDS_P2;PMS_P1;PMS_P2;Temp;Humidity;BMP_temperature;BMP_pressure;BME280_temperature;BME280_humidity;BME280_pressure;Samples;Min_cycle;Max_cycle;Signal;HPM_P1;HPM_P2
2024/01/21 00:02:01;;;;;;;21.17;14.18;;;1.70;95.80;;;;;;4250386;27;20047;-56
2024/01/21 00:04:03;;;;;;;22.15;13.38;;;1.60;95.60;;;;;;4250641;27;20047;-56
2024/01/21 00:06:05;;;;;;;21.58;14.23;;;1.70;96.00;;;;;;4249530;27;20050;-56
2024/01/21 00:08:08;;;;;;;22.73;13.73;;;1.70;95.80;;;;;;4249459;27;20383;-59
2024/01/21 00:10:10;;;;;;;22.67;13.98;;;1.70;95.60;;;;;;4249776;27;20049;-56
2024/01/21 00:12:12;;;;;;;19.92;12.90;;;1.50;95.20;;;;;;4248945;27;20058;-56
2024/01/21 00:14:14;;;;;;;24.75;14.02;;;1.50;95.70;;;;;;4249354;27;20069;-56
2024/01/21 00:16:16;;;;;;;21.58;13.93;;;1.50;95.60;;;;;;4249618;27;20050;-56
2024/01/21 00:18:20;;;;;;;20.55;12.98;;;1.40;95.70;;;;;;4249401;27;20054;-57
2024/01/21 00:20:22;;;;;;;19.95;13.48;;;1.50;96.00;;;;;;4249558;27;20122;-57
2024/01/21 00:22:25;;;;;;;24.25;13.35;;;1.40;95.60;;;;;;4249321;27;20039;-56
2024/01/21 00:24:27;;;;;;;21.85;14.10;;;1.50;95.90;;;;;;4249680;27;20043;-57
2024/01/21 00:26:29;;;;;;;21.45;13.90;;;1.40;95.90;;;;;;4249327;27;20043;-56
2024/01/21 00:28:31;;;;;;;21.10;13.50;;;1.50;95.80;;;;;;4248878;27;20518;-56
2024/01/21 00:30:33;;;;;;;22.65;13.25;;;1.40;95.50;;;;;;4249187;27;20043;-56
2024/01/21 00:32:36;;;;;;;19.95;13.55;;;1.50;95.70;;;;;;4249375;27;20122;-56
2024/01/21 00:34:40;;;;;;;20.92;14.05;;;1.60;95.90;;;;;;4249594;27;20047;-57
2024/01/21 00:36:42;;;;;;;19.13;13.02;;;1.50;95.50;;;;;;4249174;27;20039;-57
2024/01/21 00:38:45;;;;;;;20.20;13.32;;;1.50;95.50;;;;;;4249275;27;20486;-56
2024/01/21 00:40:50;;;;;;;19.45;13.68;;;1.50;95.80;;;;;;4248995;27;20043;-57
2024/01/21 00:42:52;;;;;;;25.13;14.18;;;1.60;95.70;;;;;;4248583;27;20151;-56
2024/01/21 00:45:13;;;;;;;22.05;14.13;;;1.50;95.60;;;;;;4249017;27;20054;-57
2024/01/21 00:47:16;;;;;;;21.02;13.90;;;1.50;95.60;;;;;;4248889;27;20061;-56
2024/01/21 00:49:18;;;;;;;20.38;13.93;;;1.50;95.40;;;;;;4249420;27;20054;-57
2024/01/21 00:51:22;;;;;;;20.90;12.20;;;1.60;95.70;;;;;;4248767;27;20047;-56
2024/01/21 00:53:36;;;;;;;21.83;12.85;;;1.60;95.30;;;;;;4248776;27;20047;-57
2024/01/21 00:55:38;;;;;;;22.23;14.05;;;1.40;95.40;;;;;;4230821;28;20089;-57
2024/01/21 00:57:40;;;;;;;19.33;13.20;;;1.40;95.80;;;;;;4247504;27;20063;-57
2024/01/21 00:59:43;;;;;;;18.85;12.55;;;1.30;95.90;;;;;;4248810;27;20438;-57
2024/01/21 01:01:50;;;;;;;23.35;13.25;;;1.40;95.80;;;;;;4247684;27;20039;-56
2024/01/21 01:03:52;;;;;;;21.25;13.93;;;1.50;95.60;;;;;;4248998;27;20129;-57
2024/01/21 01:05:59;;;;;;;19.20;13.20;;;1.50;95.50;;;;;;4248613;27;20122;-55
2024/01/21 01:08:05;;;;;;;22.17;14.07;;;1.60;95.60;;;;;;4248901;27;20051;-56
2024/01/21 01:10:08;;;;;;;18.77;13.20;;;1.60;95.60;;;;;;4248791;27;20050;-57
2024/01/21 01:12:10;;;;;;;20.35;12.60;;;1.60;95.70;;;;;;4249150;27;20051;-57
2024/01/21 01:14:13;;;;;;;18.67;13.35;;;1.50;95.40;;;;;;4249136;27;20051;-56
2024/01/21 01:16:15;;;;;;;18.58;12.57;;;1.50;95.90;;;;;;4249528;27;20059;-57
2024/01/21 01:18:17;;;;;;;21.35;11.98;;;1.60;96.50;;;;;;4249031;27;20074;-57
2024/01/21 01:20:19;;;;;;;21.38;12.98;;;1.60;95.90;;;;;;4248398;27;20100;-57
2024/01/21 01:22:21;;;;;;;21.20;13.80;;;1.50;95.90;;;;;;4249415;27;20096;-57
2024/01/21 01:24:25;;;;;;;21.58;12.52;;;1.60;96.10;;;;;;4249080;27;20108;-56
2024/01/21 01:26:27;;;;;;;19.85;12.90;;;1.60;96.10;;;;;;4247876;27;20054;-58
2024/01/21 01:28:31;;;;;;;22.92;12.13;;;1.60;96.10;;;;;;4248399;27;20050;-57
2024/01/21 01:30:33;;;;;;;20.80;13.70;;;1.50;96.10;;;;;;4248584;27;20397;-57
2024/01/21 01:32:35;;;;;;;18.70;12.82;;;1.60;96.00;;;;;;4248688;27;20126;-57
2024/01/21 01:34:38;;;;;;;21.58;12.40;;;1.60;96.00;;;;;;4248115;27;20099;-56
2024/01/21 01:36:40;;;;;;;20.77;12.93;;;1.70;96.20;;;;;;4248886;27;20118;-56
2024/01/21 01:38:43;;;;;;;20.38;12.55;;;1.70;95.70;;;;;;4248425;27;20069;-57
2024/01/21 01:40:46;;;;;;;18.80;12.35;;;1.70;95.90;;;;;;4249786;27;20051;-56
2024/01/21 01:42:56;;;;;;;18.55;13.23;;;1.70;95.70;;;;;;4251262;27;20047;-56
2024/01/21 01:44:59;;;;;;;21.85;13.20;;;1.70;95.80;;;;;;4251971;27;20047;-56
2024/01/21 01:47:01;;;;;;;20.75;12.75;;;1.60;95.60;;;;;;4251293;27;20513;-57
2024/01/21 01:49:03;;;;;;;17.48;12.52;;;1.70;96.20;;;;;;4248796;27;20050;-57
2024/01/21 01:51:06;;;;;;;18.05;12.02;;;1.80;95.70;;;;;;4248473;27;20549;-56
2024/01/21 01:53:09;;;;;;;19.85;11.85;;;1.70;95.60;;;;;;4248137;27;20050;-57
2024/01/21 01:55:11;;;;;;;22.40;13.07;;;1.80;96.00;;;;;;4244411;27;20039;-57
2024/01/21 01:57:16;;;;;;;18.85;13.15;;;1.80;96.10;;;;;;4231876;28;20043;-56
2024/01/21 01:59:19;;;;;;;21.02;11.38;;;1.80;95.50;;;;;;4231479;28;20048;-57
2024/01/21 02:01:22;;;;;;;19.90;12.80;;;1.90;96.00;;;;;;4231531;28;20048;-57
2024/01/21 02:03:24;;;;;;;20.80;13.25;;;1.80;95.30;;;;;;4232739;28;20053;-57
2024/01/21 02:05:27;;;;;;;18.33;13.02;;;1.80;95.30;;;;;;4233832;28;20044;-57
2024/01/21 02:07:29;;;;;;;18.27;12.50;;;1.80;95.30;;;;;;4231009;28;20047;-57
2024/01/21 02:09:31;;;;;;;19.98;12.52;;;1.80;95.30;;;;;;4230914;28;20071;-57
2024/01/21 02:11:33;;;;;;;20.67;12.80;;;1.90;95.60;;;;;;4231234;28;20113;-57
2024/01/21 02:13:37;;;;;;;18.88;12.52;;;1.90;95.20;;;;;;4231578;28;20036;-57
2024/01/21 02:15:39;;;;;;;15.50;11.05;;;2.00;95.60;;;;;;4230814;28;20050;-57
2024/01/21 02:17:41;;;;;;;18.65;12.52;;;2.00;95.50;;;;;;4230847;28;20470;-62
2024/01/21 02:19:43;;;;;;;17.98;11.70;;;2.00;95.00;;;;;;4231680;28;20048;-56
2024/01/21 02:21:46;;;;;;;16.85;10.85;;;2.00;95.60;;;;;;4233498;28;20479;-57
2024/01/21 02:23:49;;;;;;;19.40;11.73;;;2.10;95.90;;;;;;4234285;28;20048;-58
2024/01/21 02:25:51;;;;;;;24.50;13.57;;;2.10;95.20;;;;;;4232841;28;20044;-57
2024/01/21 02:27:54;;;;;;;19.40;12.85;;;2.00;95.30;;;;;;4230807;28;20044;-57
2024/01/21 02:29:56;;;;;;;22.80;13.15;;;1.90;95.30;;;;;;4231157;28;20043;-57
2024/01/21 02:31:58;;;;;;;17.55;11.82;;;2.00;95.70;;;;;;4230792;28;20047;-56
2024/01/21 02:34:00;;;;;;;18.60;11.82;;;2.00;95.60;;;;;;4230813;28;20049;-57
2024/01/21 02:36:03;;;;;;;17.88;12.00;;;2.00;95.70;;;;;;4230630;28;20043;-57
2024/01/21 02:38:05;;;;;;;17.38;10.95;;;2.10;95.50;;;;;;4212337;28;20511;-56
2024/01/21 02:40:09;;;;;;;16.58;11.45;;;2.10;95.70;;;;;;4230744;28;20043;-56
2024/01/21 02:42:12;;;;;;;17.40;12.00;;;2.20;95.20;;;;;;4230715;28;20051;-57
2024/01/21 02:44:14;;;;;;;19.40;12.30;;;2.20;94.60;;;;;;4230789;28;20101;-57
2024/01/21 02:46:17;;;;;;;18.70;11.68;;;2.10;95.40;;;;;;4231005;28;20052;-56
2024/01/21 02:48:19;;;;;;;16.95;11.45;;;2.20;95.10;;;;;;4230749;28;20047;-57
2024/01/21 02:50:21;;;;;;;15.48;10.98;;;2.20;95.20;;;;;;4212485;28;20062;-56
2024/01/21 02:52:23;;;;;;;15.85;10.68;;;2.20;95.00;;;;;;4230170;28;20522;-57
2024/01/21 02:54:25;;;;;;;19.52;12.05;;;2.20;94.70;;;;;;4230278;28;20079;-56
2024/01/21 02:56:29;;;;;;;16.73;11.63;;;2.20;94.80;;;;;;4245097;28;20539;-57
2024/01/21 02:58:31;;;;;;;17.48;10.88;;;2.30;95.10;;;;;;4247839;28;20047;-56
2024/01/21 03:00:33;;;;;;;17.20;11.85;;;2.40;95.30;;;;;;4247337;28;20047;-57
2024/01/21 03:02:35;;;;;;;18.83;11.50;;;2.30;94.80;;;;;;4247678;28;20047;-56
2024/01/21 03:04:37;;;;;;;15.35;10.85;;;2.30;94.80;;;;;;4247470;28;20058;-56
2024/01/21 03:06:40;;;;;;;16.73;11.20;;;2.30;95.00;;;;;;4246839;28;20071;-57
2024/01/21 03:08:42;;;;;;;15.25;10.48;;;2.20;95.10;;;;;;4247364;28;20492;-58
2024/01/21 03:10:44;;;;;;;19.08;11.60;;;2.20;95.20;;;;;;4228984;28;20075;-57
2024/01/21 03:12:48;;;;;;;14.98;10.40;;;2.10;94.90;;;;;;4228860;28;20055;-57
2024/01/21 03:14:50;;;;;;;16.30;11.95;;;2.10;95.40;;;;;;4247236;28;20047;-57
2024/01/21 03:16:52;;;;;;;17.30;12.43;;;2.10;94.80;;;;;;4247324;28;20047;-56
2024/01/21 03:18:54;;;;;;;19.27;11.85;;;2.10;95.20;;;;;;4247536;28;20069;-57
2024/01/21 03:20:57;;;;;;;18.02;11.43;;;2.20;95.10;;;;;;4230748;28;20066;-58
2024/01/21 03:22:59;;;;;;;17.20;12.15;;;2.20;95.20;;;;;;4250110;27;20483;-56
2024/01/21 03:25:01;;;;;;;18.38;12.15;;;2.20;94.90;;;;;;4250213;27;20043;-57
2024/01/21 03:27:03;;;;;;;20.02;12.43;;;2.30;95.10;;;;;;4250649;27;20039;-56
2024/01/21 03:29:07;;;;;;;19.13;12.70;;;2.20;94.70;;;;;;4250587;27;20187;-62
2024/01/21 03:31:09;;;;;;;17.77;11.60;;;2.20;95.00;;;;;;4250543;27;20401;-56
2024/01/21 03:33:11;;;;;;;18.48;12.38;;;2.30;94.80;;;;;;4250045;27;20043;-57
2024/01/21 03:35:13;;;;;;;17.40;11.57;;;2.30;94.60;;;;;;4250383;27;20044;-57
2024/01/21 03:37:15;;;;;;;15.80;10.55;;;2.30;94.90;;;;;;4250005;27;20138;-57
2024/01/21 03:39:17;;;;;;;18.27;11.82;;;2.30;95.20;;;;;;4252203;27;20070;-55
2024/01/21 03:41:20;;;;;;;16.35;10.38;;;2.30;94.40;;;;;;4253483;27;20104;-69
2024/01/21 03:43:22;;;;;;;15.85;10.40;;;2.40;94.60;;;;;;4253388;27;20035;-57
2024/01/21 03:45:25;;;;;;;15.55;9.60;;;2.40;94.40;;;;;;4254467;27;20047;-57
2024/01/21 03:47:27;;;;;;;17.45;11.57;;;2.50;94.80;;;;;;4253619;27;20486;-61
2024/01/21 03:49:29;;;;;;;14.85;10.05;;;2.40;94.20;;;;;;4253515;27;20043;-56
2024/01/21 03:51:32;;;;;;;15.27;10.02;;;2.40;93.90;;;;;;4252274;27;20043;-60
2024/01/21 03:53:34;;;;;;;12.38;9.05;;;2.50;93.70;;;;;;4232571;28;20039;-57
2024/01/21 03:55:36;;;;;;;14.35;9.32;;;2.60;94.10;;;;;;4231841;28;20492;-59
2024/01/21 03:57:38;;;;;;;14.10;9.70;;;2.60;94.10;;;;;;4249950;27;20053;-56
2024/01/21 03:59:40;;;;;;;16.42;9.68;;;2.70;94.10;;;;;;4250007;27;20108;-56
2024/01/21 04:01:44;;;;;;;14.20;9.40;;;2.80;93.80;;;;;;4249724;27;20054;-56
2024/01/21 04:03:46;;;;;;;10.63;6.60;;;2.90;94.30;;;;;;4231393;28;20094;-56
2024/01/21 04:05:49;;;;;;;14.73;9.85;;;2.90;94.00;;;;;;4231012;28;20511;-59
2024/01/21 04:07:51;;;;;;;11.45;8.35;;;3.10;93.70;;;;;;4249581;27;20042;-56
2024/01/21 04:09:53;;;;;;;13.27;8.30;;;3.00;93.90;;;;;;4249591;27;20043;-57
2024/01/21 04:11:56;;;;;;;14.80;9.27;;;2.90;92.80;;;;;;4249448;27;20043;-56
2024/01/21 04:13:59;;;;;;;12.63;8.60;;;2.90;92.70;;;;;;4249755;27;20046;-56
2024/01/21 04:16:01;;;;;;;13.05;7.82;;;2.90;92.30;;;;;;4250422;27;20063;-56
2024/01/21 04:18:04;;;;;;;11.82;8.68;;;2.90;92.60;;;;;;4249580;27;20051;-57
2024/01/21 04:20:09;;;;;;;16.03;8.87;;;2.90;92.30;;;;;;4249208;27;20046;-57
2024/01/21 04:22:11;;;;;;;10.83;7.40;;;3.00;92.20;;;;;;4249480;27;20443;-56
2024/01/21 04:24:13;;;;;;;11.43;8.02;;;3.00;92.50;;;;;;4249249;27;20143;-55
2024/01/21 04:26:15;;;;;;;13.43;8.50;;;3.00;92.90;;;;;;4249371;27;20392;-56
2024/01/21 04:28:17;;;;;;;11.63;8.43;;;3.00;92.80;;;;;;4249364;27;20043;-56
2024/01/21 04:30:19;;;;;;;13.98;8.43;;;3.10;92.90;;;;;;4249250;27;20051;-56
2024/01/21 04:32:21;;;;;;;9.63;7.57;;;3.00;92.40;;;;;;4248684;27;20046;-57
2024/01/21 04:34:25;;;;;;;12.48;8.90;;;3.10;92.40;;;;;;4249213;27;20168;-57
2024/01/21 04:36:27;;;;;;;11.43;7.95;;;3.00;92.30;;;;;;4249249;27;20043;-56
2024/01/21 04:38:29;;;;;;;14.05;9.02;;;3.00;92.50;;;;;;4249123;27;20088;-57
2024/01/21 04:40:31;;;;;;;15.27;8.73;;;3.00;92.50;;;;;;4249258;27;20044;-58
2024/01/21 04:42:33;;;;;;;12.98;8.65;;;3.00;92.50;;;;;;4249494;27;20413;-56
2024/01/21 04:44:35;;;;;;;12.90;8.60;;;3.00;92.40;;;;;;4250083;27;20126;-57
2024/01/21 04:46:37;;;;;;;11.85;8.02;;;3.00;92.50;;;;;;4252131;27;20115;-58
2024/01/21 04:48:39;;;;;;;10.50;7.43;;;3.20;93.00;;;;;;4250870;27;20074;-60
2024/01/21 04:50:43;;;;;;;12.13;7.95;;;3.20;92.70;;;;;;4249637;27;20049;-58
2024/01/21 04:52:45;;;;;;;11.63;7.85;;;3.20;92.20;;;;;;4249338;27;20050;-57
2024/01/21 04:54:47;;;;;;;10.57;7.50;;;3.20;92.00;;;;;;4249033;27;20058;-57
2024/01/21 04:56:50;;;;;;;10.68;7.47;;;3.20;91.90;;;;;;4248845;27;20050;-56
2024/01/21 04:58:52;;;;;;;11.88;7.82;;;3.10;92.10;;;;;;4249032;27;20054;-56
2024/01/21 05:01:07;;;;;;;10.93;7.37;;;3.20;91.90;;;;;;4248798;27;20070;-56
2024/01/21 05:03:11;;;;;;;11.82;8.10;;;3.20;92.10;;;;;;4248207;27;20043;-56
2024/01/21 05:05:29;;;;;;;10.80;7.45;;;3.20;92.30;;;;;;4248748;27;20070;-56
2024/01/21 05:07:32;;;;;;;12.60;7.72;;;3.30;92.00;;;;;;4245842;27;20485;-57
2024/01/21 05:09:34;;;;;;;11.98;7.78;;;3.30;91.50;;;;;;4248576;27;20040;-57
2024/01/21 05:11:37;;;;;;;11.63;7.40;;;3.20;91.50;;;;;;4248202;27;20051;-57
2024/01/21 05:13:39;;;;;;;14.35;7.93;;;3.20;91.80;;;;;;4248473;27;20049;-56
2024/01/21 05:15:52;;;;;;;10.85;7.30;;;3.30;92.20;;;;;;4248429;27;20406;-57
2024/01/21 05:17:56;;;;;;;11.07;6.55;;;3.30;92.20;;;;;;4248278;27;20092;-58
2024/01/21 05:19:58;;;;;;;10.18;7.07;;;3.30;92.90;;;;;;4248369;27;20050;-57
2024/01/21 05:22:00;;;;;;;9.57;6.40;;;3.30;92.80;;;;;;4248588;27;20047;-57
2024/01/21 05:24:04;;;;;;;9.88;6.68;;;3.30;93.20;;;;;;4248330;27;20046;-60
2024/01/21 05:26:10;;;;;;;9.52;6.55;;;3.30;93.60;;;;;;4248290;27;20051;-56
2024/01/21 05:28:12;;;;;;;11.55;7.13;;;3.20;93.80;;;;;;4248245;27;20050;-56
2024/01/21 05:30:15;;;;;;;11.07;6.38;;;3.20;94.10;;;;;;4248512;27;20410;-57
2024/01/21 05:32:17;;;;;;;12.43;7.18;;;3.30;94.30;;;;;;4247905;27;20047;-56
2024/01/21 05:34:19;;;;;;;11.07;7.10;;;3.20;94.10;;;;;;4248275;27;20047;-57
2024/01/21 05:36:21;;;;;;;11.38;7.07;;;3.30;94.10;;;;;;4247900;27;20043;-57
2024/01/21 05:38:23;;;;;;;10.52;7.18;;;3.30;94.10;;;;;;4230050;28;20051;-55
2024/01/21 05:40:27;;;;;;;12.13;6.95;;;3.30;94.00;;;;;;4248091;27;20047;-57
2024/01/21 05:42:29;;;;;;;6.00;4.20;;;3.30;93.70;;;;;;4248079;27;20071;-57
2024/01/21 05:44:32;;;;;;;11.43;6.25;;;3.40;94.90;;;;;;4247337;27;20047;-57
2024/01/21 05:46:34;;;;;;;10.23;6.97;;;3.40;94.70;;;;;;4248574;27;20067;-57
2024/01/21 05:48:36;;;;;;;8.57;5.95;;;3.40;94.20;;;;;;4248968;27;20084;-58
2024/01/21 05:50:38;;;;;;;9.60;6.70;;;3.30;94.30;;;;;;4248896;27;20054;-56
2024/01/21 05:52:40;;;;;;;8.90;6.43;;;3.40;93.50;;;;;;4248682;27;20438;-56
2024/01/21 05:54:42;;;;;;;9.38;6.40;;;3.30;94.40;;;;;;4248285;27;20051;-56
2024/01/21 05:56:46;;;;;;;9.52;6.60;;;3.40;93.80;;;;;;4248023;27;20043;-56
2024/01/21 05:58:48;;;;;;;9.32;6.50;;;3.40;94.30;;;;;;4248434;27;20515;-56
2024/01/21 06:00:50;;;;;;;10.88;6.68;;;3.40;94.40;;;;;;4247730;27;20300;-56
2024/01/21 06:02:53;;;;;;;10.32;7.13;;;3.40;94.30;;;;;;4248526;27;20047;-56
2024/01/21 06:04:55;;;;;;;11.60;5.93;;;3.40;94.50;;;;;;4248160;27;20039;-55
2024/01/21 06:06:59;;;;;;;8.82;5.88;;;3.50;94.30;;;;;;4229903;28;20062;-56
2024/01/21 06:09:01;;;;;;;11.57;6.43;;;3.40;93.90;;;;;;4247996;28;20394;-56
2024/01/21 06:11:03;;;;;;;9.38;6.13;;;3.40;94.50;;;;;;4247743;28;20050;-56
2024/01/21 06:13:07;;;;;;;12.50;6.68;;;3.30;94.50;;;;;;4248348;28;20055;-56
2024/01/21 06:15:17;;;;;;;10.52;6.25;;;3.30;94.60;;;;;;4247535;28;20054;-56
2024/01/21 06:17:20;;;;;;;8.60;6.25;;;3.40;94.20;;;;;;4248134;28;20127;-57
2024/01/21 06:19:22;;;;;;;11.55;6.25;;;3.40;94.50;;;;;;4248719;28;20054;-57
2024/01/21 06:21:24;;;;;;;8.82;6.07;;;3.40;94.90;;;;;;4247957;28;20046;-56
2024/01/21 06:23:26;;;;;;;8.90;5.78;;;3.40;94.60;;;;;;4247853;28;20530;-57
2024/01/21 06:25:28;;;;;;;10.27;5.72;;;3.40;94.80;;;;;;4247768;28;20122;-56
2024/01/21 06:27:30;;;;;;;11.50;6.18;;;3.40;94.70;;;;;;4247866;28;20043;-57
2024/01/21 06:29:34;;;;;;;8.95;6.30;;;3.40;95.00;;;;;;4247859;28;20118;-57
2024/01/21 06:31:36;;;;;;;8.15;5.80;;;3.40;95.20;;;;;;4247595;28;20051;-56
2024/01/21 06:33:38;;;;;;;8.40;5.10;;;3.50;95.40;;;;;;4247871;28;20047;-56
2024/01/21 06:35:40;;;;;;;10.65;6.05;;;3.70;95.40;;;;;;4247429;28;20126;-56
2024/01/21 06:37:42;;;;;;;8.25;5.68;;;3.80;95.20;;;;;;4247678;28;20047;-57
2024/01/21 06:39:45;;;;;;;7.78;5.45;;;3.80;95.00;;;;;;4229527;28;20522;-56
2024/01/21 06:42:01;;;;;;;10.13;6.13;;;3.60;94.80;;;;;;4247524;28;20084;-57
2024/01/21 06:44:04;;;;;;;7.07;5.32;;;3.70;95.60;;;;;;4247518;28;20070;-56
2024/01/21 06:46:08;;;;;;;10.32;5.78;;;3.60;95.60;;;;;;4247385;28;20060;-58
2024/01/21 06:48:10;;;;;;;10.15;6.00;;;3.70;95.90;;;;;;4247729;28;20333;-57
2024/01/21 06:50:13;;;;;;;11.32;6.38;;;3.70;95.80;;;;;;4247487;28;20047;-56
2024/01/21 06:52:15;;;;;;;13.30;7.07;;;3.80;95.70;;;;;;4247295;28;20069;-57
2024/01/21 06:54:17;;;;;;;8.43;5.95;;;3.80;95.50;;;;;;4247825;27;20466;-56
2024/01/21 06:56:19;;;;;;;7.43;5.40;;;3.80;96.20;;;;;;4250814;27;20047;-56
2024/01/21 06:58:22;;;;;;;13.98;6.90;;;3.90;96.10;;;;;;4250516;27;20039;-56
2024/01/21 07:00:24;;;;;;;8.50;5.95;;;3.80;95.80;;;;;;4250459;27;20063;-56
2024/01/21 07:02:27;;;;;;;8.85;5.43;;;3.70;95.80;;;;;;4250855;27;20066;-56
2024/01/21 07:04:29;;;;;;;8.23;6.05;;;3.70;95.70;;;;;;4250746;27;20085;-57
2024/01/21 07:06:31;;;;;;;10.05;6.13;;;3.70;95.90;;;;;;4250498;27;20108;-56
2024/01/21 07:08:33;;;;;;;11.30;7.88;;;3.70;96.20;;;;;;4250491;27;20135;-56
2024/01/21 07:10:35;;;;;;;10.40;6.95;;;3.70;96.20;;;;;;4232328;28;20044;-56
2024/01/21 07:12:37;;;;;;;10.27;6.38;;;3.80;96.10;;;;;;4250672;27;20137;-57
2024/01/21 07:14:39;;;;;;;7.90;5.80;;;3.80;96.00;;;;;;4250178;27;20134;-57
2024/01/21 07:16:41;;;;;;;8.55;5.55;;;3.70;95.90;;;;;;4250447;27;20043;-56
2024/01/21 07:18:44;;;;;;;7.78;5.90;;;3.80;96.00;;;;;;4250337;27;20394;-57
2024/01/21 07:20:47;;;;;;;10.18;6.15;;;3.60;96.40;;;;;;4250383;27;20076;-57
2024/01/21 07:22:49;;;;;;;10.35;6.47;;;3.50;96.70;;;;;;4250492;27;20071;-56
2024/01/21 07:24:51;;;;;;;9.60;6.10;;;3.60;96.70;;;;;;4232001;28;20564;-56
2024/01/21 07:26:53;;;;;;;8.70;5.95;;;3.60;96.40;;;;;;4250347;27;20493;-57
2024/01/21 07:28:55;;;;;;;10.70;6.65;;;3.50;96.60;;;;;;4250070;27;20121;-56
2024/01/21 07:30:57;;;;;;;10.02;6.25;;;3.60;96.70;;;;;;4250129;27;20070;-57
2024/01/21 07:32:59;;;;;;;8.18;5.88;;;3.50;96.70;;;;;;4250159;27;20051;-57
2024/01/21 07:35:06;;;;;;;7.97;5.70;;;3.60;96.90;;;;;;4250223;27;20414;-57
2024/01/21 07:37:08;;;;;;;10.23;5.85;;;3.60;96.80;;;;;;4250373;27;20397;-56
2024/01/21 07:39:11;;;;;;;12.77;6.72;;;3.70;96.80;;;;;;4250410;27;20047;-58
2024/01/21 07:41:13;;;;;;;8.73;5.90;;;3.70;96.70;;;;;;4250676;27;20047;-57
2024/01/21 07:43:16;;;;;;;8.38;5.70;;;3.70;96.70;;;;;;4250330;27;20050;-57
2024/01/21 07:45:18;;;;;;;8.55;6.20;;;3.80;96.50;;;;;;4251605;27;20054;-56
2024/01/21 07:47:21;;;;;;;7.93;5.68;;;3.80;96.40;;;;;;4251178;27;20049;-57
2024/01/21 07:49:23;;;;;;;11.02;6.30;;;3.70;96.80;;;;;;4252868;27;20043;-65
2024/01/21 07:51:27;;;;;;;12.63;6.07;;;3.70;97.10;;;;;;4253592;27;20043;-56
2024/01/21 07:53:30;;;;;;;7.20;5.47;;;3.80;97.00;;;;;;4252359;27;20047;-56
2024/01/21 07:55:33;;;;;;;10.88;6.18;;;3.90;96.80;;;;;;4251021;27;20114;-57
2024/01/21 07:57:35;;;;;;;8.40;5.63;;;3.90;97.00;;;;;;4250378;27;20074;-61
2024/01/21 07:59:37;;;;;;;12.40;5.97;;;3.90;97.00;;;;;;4250912;27;20050;-57
2024/01/21 08:01:39;;;;;;;9.70;6.22;;;3.80;96.60;;;;;;4250342;27;20383;-57
2024/01/21 08:03:43;;;;;;;11.25;6.13;;;3.90;97.00;;;;;;4250589;27;20047;-57
2024/01/21 08:05:45;;;;;;;12.85;6.15;;;4.00;97.00;;;;;;4250025;27;20043;-57
2024/01/21 08:07:48;;;;;;;8.50;5.22;;;4.00;96.80;;;;;;4249557;27;20046;-57
2024/01/21 08:09:51;;;;;;;7.57;5.45;;;4.00;96.80;;;;;;4249899;27;20103;-56
2024/01/21 08:11:53;;;;;;;12.40;5.63;;;4.20;96.90;;;;;;4249485;27;20071;-57
2024/01/21 08:13:55;;;;;;;9.65;5.78;;;4.10;96.80;;;;;;4249911;27;20077;-56
2024/01/21 08:15:57;;;;;;;10.02;5.68;;;4.10;96.70;;;;;;4249725;27;20054;-58
2024/01/21 08:17:59;;;;;;;10.32;5.93;;;4.00;96.80;;;;;;4249913;27;20100;-57
2024/01/21 08:20:02;;;;;;;11.15;6.07;;;4.10;96.70;;;;;;4251367;27;20055;-57
2024/01/21 08:22:04;;;;;;;8.07;5.32;;;4.00;96.80;;;;;;4251701;27;20474;-56
2024/01/21 08:24:08;;;;;;;8.10;5.47;;;4.00;96.90;;;;;;4252700;27;20043;-63
2024/01/21 08:26:10;;;;;;;8.10;5.43;;;4.10;96.90;;;;;;4251983;27;20142;-56
2024/01/21 08:28:13;;;;;;;9.32;5.47;;;4.10;96.80;;;;;;4252789;27;20399;-62
2024/01/21 08:30:16;;;;;;;8.02;5.53;;;4.10;96.70;;;;;;4252935;27;20054;-69
2024/01/21 08:32:19;;;;;;;8.60;5.15;;;4.20;96.60;;;;;;4253452;27;20051;-62
2024/01/21 08:34:20;;;;;;;11.38;5.85;;;4.20;96.60;;;;;;4252645;27;20051;-60
2024/01/21 08:36:23;;;;;;;9.63;5.53;;;4.20;96.60;;;;;;4251931;27;20070;-67
2024/01/21 08:38:26;;;;;;;10.32;5.90;;;4.30;96.60;;;;;;4252676;27;20414;-58
2024/01/21 08:40:31;;;;;;;12.07;6.10;;;4.30;96.70;;;;;;4252928;27;20074;-57
2024/01/21 08:42:33;;;;;;;;;;;4.40;96.40;;;;;;4252207;27;20039;-57
2024/01/21 08:44:35;;;;;;;9.43;5.82;;;4.40;96.50;;;;;;4252450;27;19919;-58
2024/01/21 08:46:37;;;;;;;9.68;5.32;;;4.30;96.70;;;;;;4234268;28;20128;-69
2024/01/21 08:48:41;;;;;;;9.02;5.38;;;4.20;96.90;;;;;;4252845;27;20391;-61
2024/01/21 08:50:44;;;;;;;8.30;5.50;;;4.30;97.00;;;;;;4253001;27;20051;-57
2024/01/21 08:52:46;;;;;;;9.10;5.43;;;4.40;96.90;;;;;;4252199;27;20051;-57
2024/01/21 08:54:48;;;;;;;9.32;5.85;;;4.40;96.80;;;;;;4251432;27;20081;-63
2024/01/21 08:56:52;;;;;;;8.98;5.70;;;4.30;96.80;;;;;;4251859;27;20134;-57
2024/01/21 08:58:55;;;;;;;9.05;5.45;;;4.20;97.10;;;;;;4250897;27;20068;-57
2024/01/21 09:00:57;;;;;;;7.78;4.82;;;4.30;97.00;;;;;;4249253;27;20443;-56
2024/01/21 09:02:59;;;;;;;8.82;5.30;;;4.30;97.10;;;;;;4248919;27;20043;-57
2024/01/21 09:05:01;;;;;;;7.53;5.50;;;4.40;97.00;;;;;;4248874;27;20058;-57
2024/01/21 09:07:05;;;;;;;9.93;5.68;;;4.40;97.20;;;;;;4248902;27;20413;-57
2024/01/21 09:09:07;;;;;;;8.50;5.00;;;4.40;97.10;;;;;;4249273;27;20095;-57
2024/01/21 09:11:10;;;;;;;12.25;5.25;;;4.40;97.10;;;;;;4231141;28;20147;-58
2024/01/21 09:13:13;;;;;;;8.82;5.40;;;4.50;97.30;;;;;;4248348;27;20051;-57
2024/01/21 09:15:15;;;;;;;7.75;5.07;;;4.50;97.30;;;;;;4248891;27;20043;-57
2024/01/21 09:17:18;;;;;;;11.48;5.65;;;4.50;97.50;;;;;;4248542;27;20050;-57
2024/01/21 09:19:20;;;;;;;10.15;5.63;;;4.50;97.20;;;;;;4247886;27;20490;-57
2024/01/21 09:21:24;;;;;;;10.55;5.43;;;4.50;97.60;;;;;;4248887;27;20043;-56
2024/01/21 09:23:34;;;;;;;10.38;5.60;;;4.60;97.40;;;;;;4248430;27;20043;-57
2024/01/21 09:25:36;;;;;;;9.32;5.05;;;4.70;97.30;;;;;;4248414;27;20473;-59
2024/01/21 09:27:39;;;;;;;10.90;5.25;;;4.60;97.50;;;;;;4248648;27;20096;-60
2024/01/21 09:29:43;;;;;;;8.05;5.10;;;4.60;97.50;;;;;;4248668;27;20127;-57
2024/01/21 09:31:55;;;;;;;8.73;5.80;;;4.80;97.60;;;;;;4248455;27;20050;-56
2024/01/21 09:33:56;;;;;;;8.63;5.38;;;4.70;97.70;;;;;;4248665;27;20160;-57
2024/01/21 09:35:59;;;;;;;11.48;5.30;;;4.80;97.50;;;;;;4248301;27;20073;-57
2024/01/21 09:38:01;;;;;;;8.90;5.57;;;4.90;97.40;;;;;;4248342;27;20465;-55
2024/01/21 09:40:03;;;;;;;8.75;5.65;;;5.00;97.30;;;;;;4249012;27;20130;-55
2024/01/21 09:42:09;;;;;;;7.43;5.00;;;5.00;97.40;;;;;;4249048;27;20063;-57
2024/01/21 09:44:11;;;;;;;8.98;4.65;;;5.10;97.20;;;;;;4249462;27;20043;-56
2024/01/21 09:46:15;;;;;;;10.27;4.65;;;5.00;97.30;;;;;;4248431;27;20046;-59
2024/01/21 09:48:17;;;;;;;10.20;5.90;;;5.20;97.20;;;;;;4248551;27;20047;-56
2024/01/21 09:50:21;;;;;;;8.98;4.63;;;5.00;97.00;;;;;;4248308;27;20433;-56
2024/01/21 09:52:23;;;;;;;15.68;5.80;;;5.10;97.40;;;;;;4248206;27;20047;-57
2024/01/21 09:54:26;;;;;;;10.18;5.15;;;5.10;97.40;;;;;;4247881;27;20047;-57
2024/01/21 09:56:30;;;;;;;8.10;5.63;;;5.20;97.40;;;;;;4230211;28;20047;-60
2024/01/21 09:58:36;;;;;;;11.70;5.65;;;5.20;97.30;;;;;;4248034;27;20122;-57
2024/01/21 10:00:41;;;;;;;8.48;4.75;;;5.20;97.40;;;;;;4248504;27;20421;-57
2024/01/21 10:02:47;;;;;;;9.52;5.00;;;5.20;97.50;;;;;;4249031;27;20131;-57
2024/01/21 10:04:50;;;;;;;9.40;4.68;;;5.30;97.40;;;;;;4249305;27;20047;-57
2024/01/21 10:06:52;;;;;;;7.80;4.55;;;5.30;97.70;;;;;;4248792;27;20043;-57
2024/01/21 10:09:11;;;;;;;10.73;5.35;;;5.30;97.50;;;;;;4250731;27;20051;-64
2024/01/21 10:11:13;;;;;;;10.30;5.18;;;5.40;97.20;;;;;;4249280;28;20066;-57
2024/01/21 10:13:15;;;;;;;7.38;5.30;;;5.40;97.30;;;;;;4231899;28;20123;-57
2024/01/21 10:15:18;;;;;;;9.82;5.07;;;5.40;97.20;;;;;;4249012;28;20391;-58
2024/01/21 10:17:24;;;;;;;11.70;5.25;;;5.40;97.40;;;;;;4230563;28;20058;-57
2024/01/21 10:19:30;;;;;;;12.10;4.90;;;5.30;97.50;;;;;;4248358;28;20047;-56
2024/01/21 10:21:32;;;;;;;6.50;4.40;;;5.20;98.20;;;;;;4248048;28;20521;-57
2024/01/21 10:23:35;;;;;;;10.05;5.65;;;5.30;97.90;;;;;;4248210;28;20043;-57
2024/01/21 10:25:40;;;;;;;9.43;4.95;;;5.30;97.90;;;;;;4248258;28;20043;-57
2024/01/21 10:27:45;;;;;;;9.95;5.07;;;5.40;97.80;;;;;;4247649;28;20469;-57
2024/01/21 10:29:48;;;;;;;10.02;5.38;;;5.50;97.70;;;;;;4249127;27;20513;-57
2024/01/21 10:31:50;;;;;;;9.02;5.20;;;5.50;97.60;;;;;;4251362;27;20051;-56
2024/01/21 10:33:52;;;;;;;8.00;4.82;;;5.60;97.70;;;;;;4251481;27;20490;-56
2024/01/21 10:36:00;;;;;;;9.77;5.53;;;5.70;97.60;;;;;;4251330;27;20088;-57
2024/01/21 10:38:02;;;;;;;7.25;4.75;;;5.70;97.70;;;;;;4250712;27;20047;-57
2024/01/21 10:40:08;;;;;;;12.82;5.40;;;5.70;97.40;;;;;;4251358;27;20047;-57